createdAt,value
2022-09-26T00:01:36.632Z,2.87
2022-09-26T00:04:09.397Z,2.83
2022-09-26T00:06:36.830Z,2.58
2022-09-26T00:09:04.552Z,2.30
2022-09-26T00:11:33.813Z,2.33
2022-09-26T00:14:07.145Z,2.62
2022-09-26T00:16:35.461Z,2.50
2022-09-26T00:19:03.537Z,2.47
2022-09-26T00:21:32.048Z,2.15
2022-09-26T00:24:01.530Z,2.22
2022-09-26T00:26:31.951Z,2.30
2022-09-26T00:29:06.961Z,2.35
2022-09-26T00:31:39.556Z,2.02
2022-09-26T00:34:07.676Z,2.00
2022-09-26T00:36:38.331Z,1.80
2022-09-26T00:39:10.629Z,2.17
2022-09-26T00:41:38.802Z,2.10
2022-09-26T00:44:52.870Z,1.95
2022-09-26T00:47:41.328Z,1.85
2022-09-26T00:50:22.754Z,1.60
2022-09-26T00:53:10.215Z,1.72
2022-09-26T00:55:42.916Z,2.12
2022-09-26T00:58:22.606Z,1.95
2022-09-26T01:00:50.909Z,2.02
2022-09-26T01:03:20.421Z,1.85
2022-09-26T01:05:48.867Z,2.60
2022-09-26T01:08:21.338Z,3.17
2022-09-26T01:10:49.945Z,4.55
2022-09-26T01:13:17.542Z,4.90
2022-09-26T01:15:45.283Z,5.45
2022-09-26T01:18:13.158Z,4.10
2022-09-26T01:21:13.237Z,3.67
2022-09-26T01:23:52.190Z,2.87
2022-09-26T01:26:49.123Z,2.42
2022-09-26T01:29:55.540Z,2.58
2022-09-26T01:32:49.718Z,2.30
2022-09-26T01:35:25.523Z,1.98
2022-09-26T01:38:17.909Z,2.08
2022-09-26T01:41:09.280Z,2.17
2022-09-26T01:43:41.935Z,2.37
2022-09-26T01:46:27.244Z,2.50
2022-09-26T01:49:20.453Z,2.27
2022-09-26T01:52:18.130Z,2.37
2022-09-26T01:55:26.476Z,2.22
2022-09-26T01:58:33.693Z,1.90
2022-09-26T02:01:15.043Z,2.40
2022-09-26T02:03:56.288Z,6.17
2022-09-26T02:06:56.534Z,3.70
2022-09-26T02:09:47.494Z,4.80
2022-09-26T02:12:24.445Z,2.75
2022-09-26T02:14:59.564Z,2.00
2022-09-26T02:17:42.571Z,1.98
2022-09-26T02:20:35.791Z,1.77
2022-09-26T02:23:11.620Z,2.00
2022-09-26T02:25:44.198Z,2.10
2022-09-26T02:28:13.720Z,2.02
2022-09-26T02:30:44.874Z,3.85
2022-09-26T02:33:14.734Z,2.27
2022-09-26T02:35:55.869Z,1.90
2022-09-26T02:38:30.597Z,2.40
2022-09-26T02:41:43.297Z,5.35
2022-09-26T02:44:37.255Z,8.55
2022-09-26T02:47:32.926Z,6.50
2022-09-26T02:50:54.328Z,2.67
2022-09-26T02:53:42.493Z,2.00
2022-09-26T02:56:32.165Z,2.40
2022-09-26T02:59:05.263Z,2.00
2022-09-26T03:01:41.678Z,2.20
2022-09-26T03:04:18.047Z,2.20
2022-09-26T03:06:51.198Z,2.00
2022-09-26T03:09:21.049Z,2.17
2022-09-26T03:11:50.497Z,2.10
2022-09-26T03:14:20.575Z,1.90
2022-09-26T03:16:50.005Z,2.17
2022-09-26T03:19:39.883Z,2.00
2022-09-26T03:22:09.102Z,2.22
2022-09-26T03:24:37.257Z,2.15
2022-09-26T03:27:05.925Z,2.95
2022-09-26T03:29:35.497Z,3.05
2022-09-26T03:32:04.164Z,3.37
2022-09-26T03:34:32.549Z,2.40
2022-09-26T03:36:59.978Z,2.10
2022-09-26T03:39:27.568Z,2.30
2022-09-26T03:41:59.729Z,2.20
2022-09-26T03:44:29.774Z,2.15
2022-09-26T03:49:42.051Z,2.42
2022-09-26T03:52:11.890Z,2.72
2022-09-26T03:54:40.242Z,2.40
2022-09-26T03:57:09.977Z,2.65
2022-09-26T03:59:39.558Z,2.70
2022-09-26T04:02:08.228Z,4.50
2022-09-26T04:04:36.250Z,2.62
2022-09-26T04:07:04.219Z,2.52
2022-09-26T04:09:31.904Z,3.58
2022-09-26T04:12:00.917Z,3.90
2022-09-26T04:14:28.791Z,4.12
2022-09-26T04:16:58.221Z,3.85
2022-09-26T04:19:31.215Z,3.12
2022-09-26T04:21:59.126Z,2.90
2022-09-26T04:24:27.519Z,2.67
2022-09-26T04:26:54.954Z,2.70
2022-09-26T04:29:22.761Z,2.85
2022-09-26T04:31:55.222Z,2.80
2022-09-26T04:34:27.262Z,2.65
2022-09-26T04:36:54.507Z,2.80
2022-09-26T04:39:22.613Z,2.65
2022-09-26T04:41:50.957Z,2.60
2022-09-26T04:44:18.633Z,2.35
2022-09-26T04:46:47.516Z,2.45
2022-09-26T04:49:15.313Z,2.90
2022-09-26T04:51:43.716Z,3.02
2022-09-26T04:54:11.391Z,4.35
2022-09-26T04:56:40.720Z,4.00
2022-09-26T04:59:08.579Z,3.25
2022-09-26T05:01:50.184Z,3.72
2022-09-26T05:04:22.851Z,4.85
2022-09-26T05:06:49.605Z,4.50
2022-09-26T05:09:20.187Z,3.45
2022-09-26T05:11:55.508Z,3.55
2022-09-26T05:14:23.309Z,3.98
2022-09-26T05:16:51.055Z,6.65
2022-09-26T05:19:20.661Z,8.85
2022-09-26T05:21:58.904Z,8.20
2022-09-26T05:24:45.503Z,6.85
2022-09-26T05:27:13.705Z,4.50
2022-09-26T05:29:41.331Z,4.83
2022-09-26T05:32:10.619Z,4.35
2022-09-26T05:34:38.285Z,3.87
2022-09-26T05:37:06.253Z,4.15
2022-09-26T05:39:52.613Z,4.37
2022-09-26T05:42:20.615Z,3.30
2022-09-26T05:44:48.566Z,3.70
2022-09-26T05:47:17.292Z,3.62
2022-09-26T05:49:45.180Z,3.15
2022-09-26T05:52:14.317Z,3.42
2022-09-26T05:54:42.039Z,2.80
2022-09-26T05:57:12.497Z,3.58
2022-09-26T05:59:53.902Z,2.95
2022-09-26T06:02:27.217Z,3.80
2022-09-26T06:05:06.684Z,4.00
2022-09-26T06:07:40.133Z,4.33
2022-09-26T06:10:09.505Z,4.75
2022-09-26T06:12:53.773Z,4.70
2022-09-26T06:15:22.649Z,4.47
2022-09-26T06:18:05.979Z,3.87
2022-09-26T06:20:34.198Z,4.20
2022-09-26T06:23:02.280Z,4.15
2022-09-26T06:25:29.815Z,4.53
2022-09-26T06:28:00.409Z,4.55
2022-09-26T06:30:29.889Z,5.15
2022-09-26T06:33:14.341Z,4.70
2022-09-26T06:36:04.998Z,4.92
2022-09-26T06:38:35.145Z,4.30
2022-09-26T06:41:04.574Z,4.30
2022-09-26T06:43:32.501Z,4.15
2022-09-26T06:46:18.360Z,5.15
2022-09-26T06:48:48.082Z,5.55
2022-09-26T06:51:17.344Z,6.37
2022-09-26T06:53:45.330Z,4.80
2022-09-26T06:56:14.947Z,4.17
2022-09-26T06:58:42.638Z,4.55
2022-09-26T07:01:11.525Z,4.05
2022-09-26T07:03:45.727Z,4.28
2022-09-26T07:06:31.162Z,5.05
2022-09-26T07:09:04.828Z,6.80
2022-09-26T07:11:45.958Z,6.60
2022-09-26T07:14:01.684Z,7.22
2022-09-26T07:16:30.452Z,8.08
2022-09-26T07:18:59.764Z,8.75
2022-09-26T07:21:29.313Z,8.33
2022-09-26T07:24:08.114Z,6.62
2022-09-26T07:26:36.163Z,5.83
2022-09-26T07:29:04.194Z,5.00
2022-09-26T07:31:32.011Z,5.90
2022-09-26T07:34:04.703Z,6.40
2022-09-26T07:36:32.630Z,4.97
2022-09-26T07:39:00.842Z,4.97
2022-09-26T07:41:32.375Z,5.33
2022-09-26T07:46:49.354Z,5.15
2022-09-26T07:49:36.031Z,5.72
2022-09-26T07:52:08.178Z,4.80
2022-09-26T07:54:37.759Z,4.78
2022-09-26T07:57:25.535Z,4.15
2022-09-26T07:59:55.088Z,4.50
2022-09-26T08:02:44.554Z,4.42
2022-09-26T08:05:18.728Z,4.03
2022-09-26T08:07:48.917Z,5.20
2022-09-26T08:10:23.571Z,4.72
2022-09-26T08:13:09.464Z,4.17
2022-09-26T08:15:38.890Z,4.05
2022-09-26T08:18:08.664Z,4.20
2022-09-26T08:20:36.496Z,4.12
2022-09-26T08:23:03.864Z,3.95
2022-09-26T08:25:31.693Z,4.15
2022-09-26T08:28:01.442Z,3.87
2022-09-26T08:30:30.807Z,4.60
2022-09-26T08:33:01.607Z,3.80
2022-09-26T08:35:35.151Z,4.75
2022-09-26T08:38:14.657Z,4.97
2022-09-26T08:41:05.802Z,5.87
2022-09-26T08:44:34.812Z,5.90
2022-09-26T08:47:49.345Z,4.40
2022-09-26T08:50:52.155Z,4.33
2022-09-26T08:53:25.041Z,5.53
2022-09-26T08:55:56.970Z,7.70
2022-09-26T08:58:33.593Z,5.65
2022-09-26T09:01:04.607Z,3.72
2022-09-26T09:03:39.539Z,4.58
2022-09-26T09:06:11.897Z,4.40
2022-09-26T09:08:46.247Z,5.12
2022-09-26T09:11:55.588Z,6.47
2022-09-26T09:15:23.466Z,5.10
2022-09-26T09:17:53.536Z,5.20
2022-09-26T09:20:52.891Z,4.90
2022-09-26T09:23:54.642Z,4.97
2022-09-26T09:30:19.285Z,5.70
2022-09-26T09:33:12.941Z,7.00
2022-09-26T09:35:52.546Z,8.18
2022-09-26T09:38:38.324Z,10.40
2022-09-26T09:41:28.002Z,7.70
2022-09-26T09:44:05.845Z,5.72
2022-09-26T09:46:40.641Z,5.67
2022-09-26T09:49:16.472Z,7.10
2022-09-26T09:52:15.522Z,5.97
2022-09-26T09:55:32.605Z,4.90
2022-09-26T09:58:08.551Z,4.58
2022-09-26T10:00:50.472Z,4.33
2022-09-26T10:03:35.792Z,4.70
2022-09-26T10:06:09.424Z,3.98
2022-09-26T10:08:40.894Z,4.03
2022-09-26T10:11:30.381Z,4.10
2022-09-26T10:14:02.829Z,4.15
2022-09-26T10:16:34.734Z,4.40
2022-09-26T10:19:08.937Z,4.45
2022-09-26T10:21:40.254Z,4.00
2022-09-26T10:24:24.505Z,4.50
2022-09-26T10:26:54.247Z,5.03
2022-09-26T10:29:31.999Z,5.92
2022-09-26T10:32:00.513Z,6.08
2022-09-26T10:34:33.757Z,5.62
2022-09-26T10:37:25.298Z,4.72
2022-09-26T10:40:17.305Z,5.08
2022-09-26T10:42:46.847Z,4.75
2022-09-26T10:45:19.840Z,4.42
2022-09-26T10:47:59.461Z,3.00
2022-09-26T10:50:52.020Z,2.05
2022-09-26T10:53:38.154Z,2.10
2022-09-26T10:56:13.222Z,2.00
2022-09-26T10:58:45.197Z,2.00
2022-09-26T11:01:25.750Z,2.10
2022-09-26T11:03:56.421Z,2.30
2022-09-26T11:06:35.950Z,2.65
2022-09-26T11:09:20.890Z,2.70
2022-09-26T11:12:30.678Z,2.30
2022-09-26T11:15:09.848Z,2.10
2022-09-26T11:17:50.757Z,2.17
2022-09-26T11:20:53.024Z,2.95
2022-09-26T11:23:49.655Z,3.37
2022-09-26T11:26:38.820Z,3.35
2022-09-26T11:29:24.564Z,3.00
2022-09-26T11:31:58.225Z,2.40
2022-09-26T11:34:33.751Z,2.35
2022-09-26T11:37:59.903Z,2.00
2022-09-26T11:40:56.499Z,2.10
2022-09-26T11:43:58.851Z,2.17
2022-09-26T11:46:48.209Z,2.77
2022-09-26T11:49:59.218Z,2.22
2022-09-26T11:52:48.362Z,2.40
2022-09-26T11:55:38.130Z,2.17
2022-09-26T11:58:43.029Z,2.22
2022-09-26T12:01:19.373Z,1.67
2022-09-26T12:04:01.648Z,1.80
2022-09-26T12:06:38.131Z,2.15
2022-09-26T12:09:27.055Z,2.20
2022-09-26T12:12:06.395Z,2.02
2022-09-26T12:14:56.447Z,2.95
2022-09-26T12:17:49.142Z,3.87
2022-09-26T12:20:27.552Z,4.75
2022-09-26T12:23:18.527Z,4.92
2022-09-26T12:26:08.351Z,5.03
2022-09-26T12:28:56.885Z,5.78
2022-09-26T12:32:03.494Z,6.37
2022-09-26T12:35:04.422Z,7.83
2022-09-26T12:37:52.719Z,7.42
2022-09-26T12:40:28.842Z,6.70
2022-09-26T12:43:44.285Z,7.25
2022-09-26T12:46:44.653Z,6.30
2022-09-26T12:49:32.158Z,5.80
2022-09-26T12:52:14.135Z,4.87
2022-09-26T12:55:14.545Z,4.87
2022-09-26T12:58:05.522Z,5.12
2022-09-26T13:00:39.290Z,4.87
2022-09-26T13:03:24.716Z,4.92
2022-09-26T13:06:09.977Z,5.95
2022-09-26T13:09:35.438Z,6.20
2022-09-26T13:12:30.924Z,6.30
2022-09-26T13:15:25.991Z,6.40
2022-09-26T13:18:14.620Z,5.90
2022-09-26T13:20:45.683Z,5.42
2022-09-26T13:23:33.302Z,5.28
2022-09-26T13:26:18.636Z,4.80
2022-09-26T13:29:16.305Z,4.58
2022-09-26T13:31:43.216Z,4.60
2022-09-26T13:34:25.783Z,4.30
2022-09-26T13:36:55.044Z,4.13
2022-09-26T13:39:37.938Z,4.75
2022-09-26T13:42:17.455Z,4.90
2022-09-26T13:44:53.755Z,4.78
2022-09-26T13:47:38.714Z,5.08
2022-09-26T13:50:22.524Z,4.75
2022-09-26T13:53:04.295Z,5.08
2022-09-26T13:55:33.134Z,4.65
2022-09-26T13:58:20.698Z,4.83
2022-09-26T14:00:50.459Z,4.80
2022-09-26T14:03:23.645Z,5.12
2022-09-26T14:05:54.081Z,5.15
2022-09-26T14:08:50.202Z,5.00
2022-09-26T14:11:29.966Z,5.35
2022-09-26T14:14:21.061Z,5.10
2022-09-26T14:16:54.895Z,4.17
2022-09-26T14:19:46.160Z,4.25
2022-09-26T14:22:34.265Z,6.70
2022-09-26T14:25:02.148Z,4.50
2022-09-26T14:27:41.555Z,4.67
2022-09-26T14:30:30.110Z,4.37
2022-09-26T14:33:04.726Z,5.35
2022-09-26T14:35:37.681Z,4.80
2022-09-26T14:38:15.886Z,4.40
2022-09-26T14:40:56.340Z,4.58
2022-09-26T14:43:27.660Z,4.08
2022-09-26T14:46:04.688Z,4.50
2022-09-26T14:48:38.213Z,4.60
2022-09-26T14:51:18.888Z,6.35
2022-09-26T14:53:59.455Z,6.35
2022-09-26T14:56:40.165Z,5.35
2022-09-26T14:59:34.845Z,5.87
2022-09-26T15:02:26.325Z,6.67
2022-09-26T15:05:03.526Z,8.95
2022-09-26T15:07:50.806Z,6.00
2022-09-26T15:10:27.079Z,7.53
2022-09-26T15:13:08.813Z,6.55
2022-09-26T15:16:05.037Z,6.65
2022-09-26T15:18:40.956Z,7.10
2022-09-26T15:21:37.892Z,6.33
2022-09-26T15:24:33.328Z,7.08
2022-09-26T15:27:14.247Z,6.35
2022-09-26T15:29:50.884Z,6.20
2022-09-26T15:32:26.028Z,5.85
2022-09-26T15:34:55.457Z,6.30
2022-09-26T15:37:30.355Z,6.47
2022-09-26T15:40:21.252Z,6.65
2022-09-26T15:43:00.803Z,7.17
2022-09-26T15:45:49.974Z,6.72
2022-09-26T15:48:28.910Z,7.40
2022-09-26T15:51:01.940Z,6.60
2022-09-26T15:53:39.077Z,6.22
2022-09-26T15:56:20.966Z,6.60
2022-09-26T15:58:57.081Z,7.35
2022-09-26T16:01:29.598Z,8.38
2022-09-26T16:04:16.834Z,8.03
2022-09-26T16:06:58.726Z,7.72
2022-09-26T16:09:36.465Z,8.60
2022-09-26T16:12:22.063Z,8.33
2022-09-26T16:15:06.918Z,12.18
2022-09-26T16:17:39.727Z,14.28
2022-09-26T16:20:21.455Z,12.35
2022-09-26T16:22:58.078Z,15.00
2022-09-26T16:25:46.023Z,14.93
2022-09-26T16:28:20.348Z,10.43
2022-09-26T16:30:59.518Z,8.65
2022-09-26T16:33:31.166Z,8.60
2022-09-26T16:36:14.527Z,9.13
2022-09-26T16:38:42.660Z,11.60
2022-09-26T16:44:08.629Z,11.63
2022-09-26T16:46:39.000Z,10.28
2022-09-26T16:49:44.297Z,9.70
2022-09-26T16:52:33.402Z,10.50
2022-09-26T16:55:05.504Z,8.65
2022-09-26T16:57:39.446Z,8.30
2022-09-26T17:00:36.366Z,9.40
2022-09-26T17:03:24.835Z,9.35
2022-09-26T17:05:55.828Z,9.73
2022-09-26T17:08:27.900Z,13.20
2022-09-26T17:11:00.805Z,13.55
2022-09-26T17:13:32.532Z,9.50
2022-09-26T17:16:02.709Z,9.53
2022-09-26T17:18:32.576Z,9.25
2022-09-26T17:21:00.857Z,10.15
2022-09-26T17:23:45.825Z,9.88
2022-09-26T17:26:00.407Z,10.28
2022-09-26T17:28:33.520Z,10.63
2022-09-26T17:31:03.893Z,14.65
2022-09-26T17:33:32.315Z,12.50
2022-09-26T17:36:01.715Z,9.80
2022-09-26T17:38:29.707Z,8.48
2022-09-26T17:40:57.727Z,8.63
2022-09-26T17:43:25.423Z,8.30
2022-09-26T17:45:53.358Z,9.78
2022-09-26T17:48:32.611Z,11.83
2022-09-26T17:51:02.210Z,14.00
2022-09-26T17:53:37.316Z,14.83
2022-09-26T17:56:07.062Z,14.98
2022-09-26T17:58:37.957Z,10.98
2022-09-26T18:01:08.359Z,8.38
2022-09-26T18:03:39.245Z,8.68
2022-09-26T18:06:07.587Z,9.23
2022-09-26T18:08:38.258Z,9.40
2022-09-26T18:11:13.537Z,9.03
2022-09-26T18:13:49.740Z,9.10
2022-09-26T18:16:17.621Z,8.45
2022-09-26T18:18:45.325Z,8.40
2022-09-26T18:21:18.321Z,10.43
2022-09-26T18:23:58.696Z,11.25
2022-09-26T18:26:33.498Z,18.05
2022-09-26T18:29:07.025Z,12.23
2022-09-26T18:31:40.408Z,7.75
2022-09-26T18:34:16.735Z,6.92
2022-09-26T18:36:44.996Z,8.25
2022-09-26T18:39:12.837Z,9.25
2022-09-26T18:41:40.767Z,9.50
2022-09-26T18:44:16.316Z,7.17
2022-09-26T18:46:46.470Z,6.40
2022-09-26T18:49:14.855Z,6.90
2022-09-26T18:51:43.149Z,8.05
2022-09-26T18:54:14.240Z,10.32
2022-09-26T18:57:01.213Z,9.48
2022-09-26T18:59:32.265Z,10.70
2022-09-26T19:02:01.978Z,14.45
2022-09-26T19:04:30.319Z,18.45
2022-09-26T19:07:01.072Z,18.85
2022-09-26T19:09:35.227Z,18.60
2022-09-26T19:12:04.115Z,15.58
2022-09-26T19:14:32.046Z,14.03
2022-09-26T19:16:59.918Z,14.13
2022-09-26T19:19:31.956Z,15.35
2022-09-26T19:22:08.808Z,15.88
2022-09-26T19:24:52.634Z,15.00
2022-09-26T19:27:27.037Z,14.95
2022-09-26T19:30:06.045Z,13.45
2022-09-26T19:32:41.690Z,11.83
2022-09-26T19:35:32.557Z,12.60
2022-09-26T19:38:03.166Z,13.13
2022-09-26T19:40:31.142Z,13.45
2022-09-26T19:43:00.885Z,11.03
2022-09-26T19:45:32.290Z,9.23
2022-09-26T19:48:00.910Z,9.50
2022-09-26T19:50:32.694Z,9.75
2022-09-26T19:53:02.491Z,11.97
2022-09-26T19:55:31.892Z,13.20
2022-09-26T19:58:16.224Z,12.65
2022-09-26T20:00:44.564Z,11.68
2022-09-26T20:03:19.415Z,11.55
2022-09-26T20:05:51.951Z,9.00
2022-09-26T20:08:24.529Z,8.30
2022-09-26T20:10:54.349Z,7.47
2022-09-26T20:13:22.181Z,7.33
2022-09-26T20:15:50.299Z,7.30
2022-09-26T20:18:21.739Z,7.00
2022-09-26T20:20:55.726Z,8.70
2022-09-26T20:23:26.778Z,8.48
2022-09-26T20:25:55.454Z,7.45
2022-09-26T20:28:23.324Z,6.55
2022-09-26T20:30:50.947Z,6.17
2022-09-26T20:33:21.795Z,5.65
2022-09-26T20:35:53.380Z,5.17
2022-09-26T20:38:34.185Z,5.53
2022-09-26T20:41:35.731Z,6.00
2022-09-26T20:44:25.790Z,6.42
2022-09-26T20:46:59.556Z,6.08
2022-09-26T20:49:38.716Z,7.25
2022-09-26T20:52:08.299Z,7.30
2022-09-26T20:54:36.066Z,8.60
2022-09-26T20:57:03.892Z,8.88
2022-09-26T20:59:33.402Z,9.90
2022-09-26T21:02:06.238Z,9.63
2022-09-26T21:04:33.937Z,9.65
2022-09-26T21:07:01.406Z,9.33
2022-09-26T21:09:29.206Z,8.58
2022-09-26T21:11:56.986Z,9.05
2022-09-26T21:14:25.536Z,7.67
2022-09-26T21:16:54.220Z,8.70
2022-09-26T21:19:24.529Z,8.00
2022-09-26T21:21:55.919Z,8.90
2022-09-26T21:24:38.146Z,8.40
2022-09-26T21:27:11.665Z,12.53
2022-09-26T21:29:41.159Z,9.78
2022-09-26T21:32:13.492Z,8.60
2022-09-26T21:34:41.678Z,8.00
2022-09-26T21:37:10.610Z,8.83
2022-09-26T21:39:39.531Z,8.05
2022-09-26T21:42:07.410Z,7.70
2022-09-26T21:44:40.319Z,7.75
2022-09-26T21:47:08.273Z,7.80
2022-09-26T21:49:36.001Z,8.20
2022-09-26T21:52:17.321Z,9.15
2022-09-26T21:54:45.274Z,8.20
2022-09-26T21:57:23.582Z,7.95
2022-09-26T21:59:53.512Z,8.60
2022-09-26T22:02:21.198Z,11.83
2022-09-26T22:04:49.506Z,11.88
2022-09-26T22:07:17.325Z,11.95
2022-09-26T22:09:45.155Z,19.52
2022-09-26T22:12:12.930Z,22.22
2022-09-26T22:14:41.117Z,26.95
2022-09-26T22:17:09.168Z,20.65
2022-09-26T22:19:36.982Z,19.92
2022-09-26T22:22:05.247Z,19.17
2022-09-26T22:24:33.381Z,12.70
2022-09-26T22:27:01.641Z,11.50
2022-09-26T22:29:29.658Z,17.95
2022-09-26T22:31:57.518Z,18.60
2022-09-26T22:34:28.441Z,11.22
2022-09-26T22:36:56.255Z,9.83
2022-09-26T22:39:24.283Z,10.70
2022-09-26T22:41:52.298Z,10.08
2022-09-26T22:44:19.993Z,10.20
2022-09-26T22:46:47.754Z,11.53
2022-09-26T22:49:15.637Z,11.25
2022-09-26T22:51:43.543Z,11.53
2022-09-26T22:54:11.507Z,11.15
2022-09-26T22:56:39.199Z,10.35
2022-09-26T22:59:07.067Z,10.15
2022-09-26T23:01:34.854Z,8.85
2022-09-26T23:04:02.790Z,9.53
2022-09-26T23:06:31.870Z,9.03
2022-09-26T23:08:59.582Z,9.10
2022-09-26T23:11:27.848Z,9.38
2022-09-26T23:13:55.575Z,9.03
2022-09-26T23:16:26.912Z,9.35
2022-09-26T23:18:55.204Z,9.43
2022-09-26T23:21:26.443Z,9.20
2022-09-26T23:23:57.193Z,8.73
2022-09-26T23:26:30.768Z,8.38
2022-09-26T23:28:59.183Z,8.30
2022-09-26T23:31:28.489Z,8.78
2022-09-26T23:33:56.893Z,8.88
2022-09-26T23:36:25.081Z,9.45
2022-09-26T23:38:52.875Z,10.82
2022-09-26T23:41:20.604Z,11.75
2022-09-26T23:43:48.388Z,10.63
2022-09-26T23:46:16.773Z,9.95
2022-09-26T23:48:44.462Z,10.80
2022-09-26T23:51:12.168Z,10.08
2022-09-26T23:53:39.958Z,9.60
2022-09-26T23:56:10.989Z,8.33
2022-09-26T23:58:38.957Z,8.98
